sensor_id;sensor_type;location;lat;lon;timestamp;temperature;humidity
46508;DHT22;32223;53.654;10.014;2022-09-14T00:00:58;13.10;99.90
46508;DHT22;32223;53.654;10.014;2022-09-14T00:03:24;13.00;99.90
46508;DHT22;32223;53.654;10.014;2022-09-14T00:05:49;13.00;99.90
46508;DHT22;32223;53.654;10.014;2022-09-14T00:08:15;12.90;99.90
46508;DHT22;32223;53.654;10.014;2022-09-14T00:10:45;12.80;99.90
46508;DHT22;32223;53.654;10.014;2022-09-14T00:13:13;12.80;99.90
46508;DHT22;32223;53.654;10.014;2022-09-14T00:15:40;12.80;99.90
46508;DHT22;32223;53.654;10.014;2022-09-14T00:18:08;12.70;99.90
46508;DHT22;32223;53.654;10.014;2022-09-14T00:20:34;12.80;99.90
46508;DHT22;32223;53.654;10.014;2022-09-14T00:23:00;12.70;99.90
46508;DHT22;32223;53.654;10.014;2022-09-14T00:25:27;12.70;99.90
46508;DHT22;32223;53.654;10.014;2022-09-14T00:27:53;12.60;99.90
46508;DHT22;32223;53.654;10.014;2022-09-14T00:30:20;12.60;99.90
46508;DHT22;32223;53.654;10.014;2022-09-14T00:32:46;12.60;99.90
46508;DHT22;32223;53.654;10.014;2022-09-14T00:35:11;12.60;99.90
46508;DHT22;32223;53.654;10.014;2022-09-14T00:37:37;12.60;99.90
46508;DHT22;32223;53.654;10.014;2022-09-14T00:40:04;12.50;99.90
46508;DHT22;32223;53.654;10.014;2022-09-14T00:42:30;12.50;99.90
46508;DHT22;32223;53.654;10.014;2022-09-14T00:45:00;12.40;99.90
46508;DHT22;32223;53.654;10.014;2022-09-14T00:47:28;12.50;99.90
46508;DHT22;32223;53.654;10.014;2022-09-14T00:49:55;12.50;99.90
46508;DHT22;32223;53.654;10.014;2022-09-14T00:52:25;12.40;99.90
46508;DHT22;32223;53.654;10.014;2022-09-14T00:54:57;12.40;99.90
46508;DHT22;32223;53.654;10.014;2022-09-14T00:57:26;12.40;99.90
46508;DHT22;32223;53.654;10.014;2022-09-14T00:59:52;12.40;99.90
46508;DHT22;32223;53.654;10.014;2022-09-14T01:02:20;12.30;99.90
46508;DHT22;32223;53.654;10.014;2022-09-14T01:04:47;12.30;99.90
46508;DHT22;32223;53.654;10.014;2022-09-14T01:15:46;12.30;99.90
46508;DHT22;32223;53.654;10.014;2022-09-14T01:18:20;12.30;99.90
46508;DHT22;32223;53.654;10.014;2022-09-14T01:20:58;12.30;99.90
46508;DHT22;32223;53.654;10.014;2022-09-14T01:31:29;12.10;99.90
46508;DHT22;32223;53.654;10.014;2022-09-14T01:34:13;12.10;99.90
46508;DHT22;32223;53.654;10.014;2022-09-14T01:36:45;12.10;99.90
46508;DHT22;32223;53.654;10.014;2022-09-14T01:39:13;12.10;99.90
46508;DHT22;32223;53.654;10.014;2022-09-14T01:41:40;12.10;99.90
46508;DHT22;32223;53.654;10.014;2022-09-14T01:44:10;12.10;99.90
46508;DHT22;32223;53.654;10.014;2022-09-14T01:46:44;12.00;99.90
46508;DHT22;32223;53.654;10.014;2022-09-14T01:49:30;12.00;99.90
46508;DHT22;32223;53.654;10.014;2022-09-14T01:52:01;12.00;99.90
46508;DHT22;32223;53.654;10.014;2022-09-14T01:57:21;12.00;99.90
46508;DHT22;32223;53.654;10.014;2022-09-14T01:59:51;12.00;99.90
46508;DHT22;32223;53.654;10.014;2022-09-14T02:02:38;12.00;99.90
46508;DHT22;32223;53.654;10.014;2022-09-14T02:05:21;12.00;99.90
46508;DHT22;32223;53.654;10.014;2022-09-14T02:07:49;12.00;99.90
46508;DHT22;32223;53.654;10.014;2022-09-14T02:10:15;11.90;99.90
46508;DHT22;32223;53.654;10.014;2022-09-14T02:12:41;11.90;99.90
46508;DHT22;32223;53.654;10.014;2022-09-14T02:15:10;11.80;99.90
46508;DHT22;32223;53.654;10.014;2022-09-14T02:17:37;11.90;99.90
46508;DHT22;32223;53.654;10.014;2022-09-14T02:20:05;11.80;99.90
46508;DHT22;32223;53.654;10.014;2022-09-14T02:22:32;11.80;99.90
46508;DHT22;32223;53.654;10.014;2022-09-14T02:24:59;11.90;99.90
46508;DHT22;32223;53.654;10.014;2022-09-14T02:27:24;11.90;99.90
46508;DHT22;32223;53.654;10.014;2022-09-14T02:29:51;11.90;99.90
46508;DHT22;32223;53.654;10.014;2022-09-14T02:32:41;11.80;99.90
46508;DHT22;32223;53.654;10.014;2022-09-14T02:35:36;11.80;99.90
46508;DHT22;32223;53.654;10.014;2022-09-14T02:41:00;11.80;99.90
46508;DHT22;32223;53.654;10.014;2022-09-14T02:46:36;11.90;99.90
46508;DHT22;32223;53.654;10.014;2022-09-14T02:49:03;11.90;99.90
46508;DHT22;32223;53.654;10.014;2022-09-14T02:51:39;11.80;99.90
46508;DHT22;32223;53.654;10.014;2022-09-14T02:54:15;11.90;99.90
46508;DHT22;32223;53.654;10.014;2022-09-14T02:56:41;11.90;99.90
46508;DHT22;32223;53.654;10.014;2022-09-14T02:59:09;11.80;99.90
46508;DHT22;32223;53.654;10.014;2022-09-14T03:01:34;11.90;99.90
46508;DHT22;32223;53.654;10.014;2022-09-14T03:04:00;11.90;99.90
46508;DHT22;32223;53.654;10.014;2022-09-14T03:06:26;11.90;99.90
46508;DHT22;32223;53.654;10.014;2022-09-14T03:08:52;12.00;99.90
46508;DHT22;32223;53.654;10.014;2022-09-14T03:11:17;11.90;99.90
46508;DHT22;32223;53.654;10.014;2022-09-14T03:13:43;11.90;99.90
46508;DHT22;32223;53.654;10.014;2022-09-14T03:16:15;11.90;99.90
46508;DHT22;32223;53.654;10.014;2022-09-14T03:18:41;11.80;99.90
46508;DHT22;32223;53.654;10.014;2022-09-14T03:21:12;11.80;99.90
46508;DHT22;32223;53.654;10.014;2022-09-14T03:23:43;11.80;99.90
46508;DHT22;32223;53.654;10.014;2022-09-14T03:26:20;11.70;99.90
46508;DHT22;32223;53.654;10.014;2022-09-14T03:28:50;11.70;99.90
46508;DHT22;32223;53.654;10.014;2022-09-14T03:31:16;11.80;99.90
46508;DHT22;32223;53.654;10.014;2022-09-14T03:33:41;11.70;99.90
46508;DHT22;32223;53.654;10.014;2022-09-14T03:36:11;11.60;99.90
46508;DHT22;32223;53.654;10.014;2022-09-14T03:38:37;11.60;99.90
46508;DHT22;32223;53.654;10.014;2022-09-14T03:41:09;11.60;99.90
46508;DHT22;32223;53.654;10.014;2022-09-14T03:43:35;11.60;99.90
46508;DHT22;32223;53.654;10.014;2022-09-14T03:46:08;11.50;99.90
46508;DHT22;32223;53.654;10.014;2022-09-14T03:48:35;11.50;99.90
46508;DHT22;32223;53.654;10.014;2022-09-14T03:51:05;11.40;99.90
46508;DHT22;32223;53.654;10.014;2022-09-14T03:53:31;11.40;99.90
46508;DHT22;32223;53.654;10.014;2022-09-14T03:55:57;11.40;99.90
46508;DHT22;32223;53.654;10.014;2022-09-14T03:58:24;11.30;99.90
46508;DHT22;32223;53.654;10.014;2022-09-14T04:00:51;11.30;99.90
46508;DHT22;32223;53.654;10.014;2022-09-14T04:03:17;11.40;99.90
46508;DHT22;32223;53.654;10.014;2022-09-14T04:05:43;11.30;99.90
46508;DHT22;32223;53.654;10.014;2022-09-14T04:08:17;11.30;99.90
46508;DHT22;32223;53.654;10.014;2022-09-14T04:10:43;11.30;99.90
46508;DHT22;32223;53.654;10.014;2022-09-14T04:13:09;11.30;99.90
46508;DHT22;32223;53.654;10.014;2022-09-14T04:15:34;11.40;99.90
46508;DHT22;32223;53.654;10.014;2022-09-14T04:18:00;11.40;99.90
46508;DHT22;32223;53.654;10.014;2022-09-14T04:20:25;11.40;99.90
46508;DHT22;32223;53.654;10.014;2022-09-14T04:22:51;11.50;99.90
46508;DHT22;32223;53.654;10.014;2022-09-14T04:25:17;11.50;99.90
46508;DHT22;32223;53.654;10.014;2022-09-14T04:27:42;11.60;99.90
46508;DHT22;32223;53.654;10.014;2022-09-14T04:30:08;11.70;99.90
46508;DHT22;32223;53.654;10.014;2022-09-14T04:32:34;11.70;99.90
46508;DHT22;32223;53.654;10.014;2022-09-14T04:34:59;11.70;99.90
46508;DHT22;32223;53.654;10.014;2022-09-14T04:37:25;11.80;99.90
46508;DHT22;32223;53.654;10.014;2022-09-14T04:39:51;11.80;99.90
46508;DHT22;32223;53.654;10.014;2022-09-14T04:42:16;11.90;99.90
46508;DHT22;32223;53.654;10.014;2022-09-14T04:44:42;11.90;99.90
46508;DHT22;32223;53.654;10.014;2022-09-14T04:47:07;12.00;99.90
46508;DHT22;32223;53.654;10.014;2022-09-14T04:49:33;12.00;99.90
46508;DHT22;32223;53.654;10.014;2022-09-14T04:51:59;12.00;99.90
46508;DHT22;32223;53.654;10.014;2022-09-14T04:54:24;12.10;99.90
46508;DHT22;32223;53.654;10.014;2022-09-14T04:56:50;12.10;99.90
46508;DHT22;32223;53.654;10.014;2022-09-14T04:59:15;12.20;99.90
46508;DHT22;32223;53.654;10.014;2022-09-14T05:01:44;12.20;99.90
46508;DHT22;32223;53.654;10.014;2022-09-14T05:04:10;12.30;99.90
46508;DHT22;32223;53.654;10.014;2022-09-14T05:06:38;12.30;99.90
46508;DHT22;32223;53.654;10.014;2022-09-14T05:09:08;12.30;99.90
46508;DHT22;32223;53.654;10.014;2022-09-14T05:11:35;12.30;99.90
46508;DHT22;32223;53.654;10.014;2022-09-14T05:14:02;12.30;99.90
46508;DHT22;32223;53.654;10.014;2022-09-14T05:16:33;12.40;99.90
46508;DHT22;32223;53.654;10.014;2022-09-14T05:19:01;12.50;99.90
46508;DHT22;32223;53.654;10.014;2022-09-14T05:21:29;12.50;99.90
46508;DHT22;32223;53.654;10.014;2022-09-14T05:23:57;12.50;99.90
46508;DHT22;32223;53.654;10.014;2022-09-14T05:26:25;12.50;99.90
46508;DHT22;32223;53.654;10.014;2022-09-14T05:28:53;12.60;99.90
46508;DHT22;32223;53.654;10.014;2022-09-14T05:31:20;12.50;99.90
46508;DHT22;32223;53.654;10.014;2022-09-14T05:33:46;12.60;99.90
46508;DHT22;32223;53.654;10.014;2022-09-14T05:36:12;12.70;99.90
46508;DHT22;32223;53.654;10.014;2022-09-14T05:38:39;12.70;99.90
46508;DHT22;32223;53.654;10.014;2022-09-14T05:41:05;12.70;99.90
46508;DHT22;32223;53.654;10.014;2022-09-14T05:43:32;12.80;99.90
46508;DHT22;32223;53.654;10.014;2022-09-14T05:46:12;12.80;99.90
46508;DHT22;32223;53.654;10.014;2022-09-14T05:48:39;12.90;99.90
46508;DHT22;32223;53.654;10.014;2022-09-14T05:51:13;12.90;99.90
46508;DHT22;32223;53.654;10.014;2022-09-14T05:53:40;12.90;99.90
46508;DHT22;32223;53.654;10.014;2022-09-14T05:56:08;12.90;99.90
46508;DHT22;32223;53.654;10.014;2022-09-14T05:58:35;12.90;99.90
46508;DHT22;32223;53.654;10.014;2022-09-14T06:01:08;13.00;99.90
46508;DHT22;32223;53.654;10.014;2022-09-14T06:03:34;13.10;99.90
46508;DHT22;32223;53.654;10.014;2022-09-14T06:06:00;13.10;99.90
46508;DHT22;32223;53.654;10.014;2022-09-14T06:08:26;13.20;99.90
46508;DHT22;32223;53.654;10.014;2022-09-14T06:10:51;13.20;99.90
46508;DHT22;32223;53.654;10.014;2022-09-14T06:13:17;13.30;99.90
46508;DHT22;32223;53.654;10.014;2022-09-14T06:15:42;13.30;99.90
46508;DHT22;32223;53.654;10.014;2022-09-14T06:18:08;13.40;99.90
46508;DHT22;32223;53.654;10.014;2022-09-14T06:20:33;13.50;99.90
46508;DHT22;32223;53.654;10.014;2022-09-14T06:22:59;13.60;99.90
46508;DHT22;32223;53.654;10.014;2022-09-14T06:25:24;13.70;99.90
46508;DHT22;32223;53.654;10.014;2022-09-14T06:27:53;13.80;99.90
46508;DHT22;32223;53.654;10.014;2022-09-14T06:30:19;13.90;99.90
46508;DHT22;32223;53.654;10.014;2022-09-14T06:32:45;14.00;99.90
46508;DHT22;32223;53.654;10.014;2022-09-14T06:35:11;14.10;99.90
46508;DHT22;32223;53.654;10.014;2022-09-14T06:37:36;14.10;99.90
46508;DHT22;32223;53.654;10.014;2022-09-14T06:40:03;14.20;99.90
46508;DHT22;32223;53.654;10.014;2022-09-14T06:42:29;14.20;99.90
46508;DHT22;32223;53.654;10.014;2022-09-14T06:44:55;14.30;99.90
46508;DHT22;32223;53.654;10.014;2022-09-14T06:47:21;14.30;99.90
46508;DHT22;32223;53.654;10.014;2022-09-14T06:49:47;14.30;99.90
46508;DHT22;32223;53.654;10.014;2022-09-14T06:52:14;14.30;99.90
46508;DHT22;32223;53.654;10.014;2022-09-14T06:54:40;14.30;99.90
46508;DHT22;32223;53.654;10.014;2022-09-14T06:57:05;14.40;99.90
46508;DHT22;32223;53.654;10.014;2022-09-14T06:59:31;14.40;99.90
46508;DHT22;32223;53.654;10.014;2022-09-14T07:01:56;14.40;99.90
46508;DHT22;32223;53.654;10.014;2022-09-14T07:04:22;14.60;99.90
46508;DHT22;32223;53.654;10.014;2022-09-14T07:06:49;14.70;99.90
46508;DHT22;32223;53.654;10.014;2022-09-14T07:09:18;14.70;99.90
46508;DHT22;32223;53.654;10.014;2022-09-14T07:11:44;14.80;99.90
46508;DHT22;32223;53.654;10.014;2022-09-14T07:14:11;14.90;99.90
46508;DHT22;32223;53.654;10.014;2022-09-14T07:16:38;14.90;99.90
46508;DHT22;32223;53.654;10.014;2022-09-14T07:19:06;15.10;99.90
46508;DHT22;32223;53.654;10.014;2022-09-14T07:21:34;15.20;99.90
46508;DHT22;32223;53.654;10.014;2022-09-14T07:24:00;15.30;99.90
46508;DHT22;32223;53.654;10.014;2022-09-14T07:26:28;15.40;99.90
46508;DHT22;32223;53.654;10.014;2022-09-14T07:28:59;15.60;99.90
46508;DHT22;32223;53.654;10.014;2022-09-14T07:33:57;16.00;99.90
46508;DHT22;32223;53.654;10.014;2022-09-14T07:36:25;16.00;99.90
46508;DHT22;32223;53.654;10.014;2022-09-14T07:38:52;16.10;99.90
46508;DHT22;32223;53.654;10.014;2022-09-14T07:41:21;16.10;99.90
46508;DHT22;32223;53.654;10.014;2022-09-14T07:43:52;16.10;99.90
46508;DHT22;32223;53.654;10.014;2022-09-14T07:46:19;16.10;99.90
46508;DHT22;32223;53.654;10.014;2022-09-14T07:48:45;16.40;99.90
46508;DHT22;32223;53.654;10.014;2022-09-14T07:51:12;16.50;99.90
46508;DHT22;32223;53.654;10.014;2022-09-14T07:53:39;16.70;99.90
46508;DHT22;32223;53.654;10.014;2022-09-14T07:56:08;16.80;99.90
46508;DHT22;32223;53.654;10.014;2022-09-14T07:58:34;17.00;99.90
46508;DHT22;32223;53.654;10.014;2022-09-14T08:01:10;17.10;99.90
46508;DHT22;32223;53.654;10.014;2022-09-14T08:03:37;17.20;99.90
46508;DHT22;32223;53.654;10.014;2022-09-14T08:06:09;17.20;99.90
46508;DHT22;32223;53.654;10.014;2022-09-14T08:08:37;17.20;99.90
46508;DHT22;32223;53.654;10.014;2022-09-14T08:11:13;17.20;99.90
46508;DHT22;32223;53.654;10.014;2022-09-14T08:13:41;17.30;99.90
46508;DHT22;32223;53.654;10.014;2022-09-14T08:16:08;17.40;99.90
46508;DHT22;32223;53.654;10.014;2022-09-14T08:18:34;17.50;99.90
46508;DHT22;32223;53.654;10.014;2022-09-14T08:21:05;17.50;99.90
46508;DHT22;32223;53.654;10.014;2022-09-14T08:23:32;17.60;99.90
46508;DHT22;32223;53.654;10.014;2022-09-14T08:26:06;17.50;99.90
46508;DHT22;32223;53.654;10.014;2022-09-14T08:28:32;17.70;99.90
46508;DHT22;32223;53.654;10.014;2022-09-14T08:31:10;17.80;99.90
46508;DHT22;32223;53.654;10.014;2022-09-14T08:33:41;17.80;99.90
46508;DHT22;32223;53.654;10.014;2022-09-14T08:36:08;17.90;99.90
46508;DHT22;32223;53.654;10.014;2022-09-14T08:38:35;18.00;99.90
46508;DHT22;32223;53.654;10.014;2022-09-14T08:41:23;18.00;99.90
46508;DHT22;32223;53.654;10.014;2022-09-14T08:43:50;18.00;99.90
46508;DHT22;32223;53.654;10.014;2022-09-14T08:46:30;18.10;99.90
46508;DHT22;32223;53.654;10.014;2022-09-14T08:48:57;18.30;99.90
46508;DHT22;32223;53.654;10.014;2022-09-14T08:51:24;18.50;99.90
46508;DHT22;32223;53.654;10.014;2022-09-14T08:53:51;18.50;99.90
46508;DHT22;32223;53.654;10.014;2022-09-14T08:56:23;18.50;99.90
46508;DHT22;32223;53.654;10.014;2022-09-14T08:58:55;18.40;99.90
46508;DHT22;32223;53.654;10.014;2022-09-14T09:01:28;18.30;99.90
46508;DHT22;32223;53.654;10.014;2022-09-14T09:04:48;18.40;99.90
46508;DHT22;32223;53.654;10.014;2022-09-14T09:07:36;18.40;99.90
46508;DHT22;32223;53.654;10.014;2022-09-14T09:10:04;18.30;99.90
46508;DHT22;32223;53.654;10.014;2022-09-14T09:12:37;18.50;99.90
46508;DHT22;32223;53.654;10.014;2022-09-14T09:15:21;18.60;99.90
46508;DHT22;32223;53.654;10.014;2022-09-14T09:17:55;18.70;99.90
46508;DHT22;32223;53.654;10.014;2022-09-14T09:20:27;18.90;99.90
46508;DHT22;32223;53.654;10.014;2022-09-14T09:28:25;19.10;99.90
46508;DHT22;32223;53.654;10.014;2022-09-14T09:31:01;19.10;99.90
46508;DHT22;32223;53.654;10.014;2022-09-14T09:33:29;19.10;99.90
46508;DHT22;32223;53.654;10.014;2022-09-14T09:35:55;18.90;99.90
46508;DHT22;32223;53.654;10.014;2022-09-14T09:38:24;18.90;99.90
46508;DHT22;32223;53.654;10.014;2022-09-14T09:44:00;18.80;99.90
46508;DHT22;32223;53.654;10.014;2022-09-14T09:46:28;18.70;99.90
46508;DHT22;32223;53.654;10.014;2022-09-14T09:48:55;18.70;99.90
46508;DHT22;32223;53.654;10.014;2022-09-14T09:56:35;19.00;99.90
46508;DHT22;32223;53.654;10.014;2022-09-14T09:59:02;19.10;99.90
46508;DHT22;32223;53.654;10.014;2022-09-14T10:01:34;19.10;99.90
46508;DHT22;32223;53.654;10.014;2022-09-14T10:04:18;19.40;99.90
46508;DHT22;32223;53.654;10.014;2022-09-14T10:06:46;19.50;99.90
46508;DHT22;32223;53.654;10.014;2022-09-14T10:09:21;19.50;99.90
46508;DHT22;32223;53.654;10.014;2022-09-14T10:12:01;19.30;99.90
46508;DHT22;32223;53.654;10.014;2022-09-14T10:14:29;19.10;99.90
46508;DHT22;32223;53.654;10.014;2022-09-14T10:17:16;18.70;99.90
46508;DHT22;32223;53.654;10.014;2022-09-14T10:19:50;18.50;99.90
46508;DHT22;32223;53.654;10.014;2022-09-14T10:22:31;18.30;99.90
46508;DHT22;32223;53.654;10.014;2022-09-14T10:33:03;17.90;99.90
46508;DHT22;32223;53.654;10.014;2022-09-14T10:36:07;17.90;99.90
46508;DHT22;32223;53.654;10.014;2022-09-14T10:38:48;17.90;99.90
46508;DHT22;32223;53.654;10.014;2022-09-14T10:44:26;17.80;99.90
46508;DHT22;32223;53.654;10.014;2022-09-14T10:47:00;17.70;99.90
46508;DHT22;32223;53.654;10.014;2022-09-14T10:55:22;17.80;99.90
46508;DHT22;32223;53.654;10.014;2022-09-14T10:58:23;18.00;99.90
46508;DHT22;32223;53.654;10.014;2022-09-14T11:01:20;18.30;99.90
46508;DHT22;32223;53.654;10.014;2022-09-14T11:03:59;18.60;99.90
46508;DHT22;32223;53.654;10.014;2022-09-14T11:06:52;19.00;99.90
46508;DHT22;32223;53.654;10.014;2022-09-14T11:09:29;19.50;99.90
46508;DHT22;32223;53.654;10.014;2022-09-14T11:19:49;20.60;99.90
46508;DHT22;32223;53.654;10.014;2022-09-14T11:26:08;20.80;99.90
46508;DHT22;32223;53.654;10.014;2022-09-14T11:28:46;20.50;99.90
46508;DHT22;32223;53.654;10.014;2022-09-14T11:31:20;20.30;99.90
46508;DHT22;32223;53.654;10.014;2022-09-14T11:34:21;20.40;99.90
46508;DHT22;32223;53.654;10.014;2022-09-14T11:37:09;20.30;99.90
46508;DHT22;32223;53.654;10.014;2022-09-14T11:39:44;20.40;99.90
46508;DHT22;32223;53.654;10.014;2022-09-14T11:44:42;20.00;99.90
46508;DHT22;32223;53.654;10.014;2022-09-14T11:47:16;20.10;99.90
46508;DHT22;32223;53.654;10.014;2022-09-14T11:49:51;20.10;99.90
46508;DHT22;32223;53.654;10.014;2022-09-14T11:52:22;20.10;99.90
46508;DHT22;32223;53.654;10.014;2022-09-14T11:54:49;20.10;99.90
46508;DHT22;32223;53.654;10.014;2022-09-14T11:57:29;20.10;99.90
46508;DHT22;32223;53.654;10.014;2022-09-14T12:00:00;20.20;99.90
46508;DHT22;32223;53.654;10.014;2022-09-14T12:12:40;19.30;99.90
46508;DHT22;32223;53.654;10.014;2022-09-14T12:17:48;18.90;99.90
46508;DHT22;32223;53.654;10.014;2022-09-14T12:20:37;18.80;99.90
46508;DHT22;32223;53.654;10.014;2022-09-14T12:35:59;18.50;99.90
46508;DHT22;32223;53.654;10.014;2022-09-14T12:43:46;18.20;99.90
46508;DHT22;32223;53.654;10.014;2022-09-14T12:54:09;18.00;99.90
46508;DHT22;32223;53.654;10.014;2022-09-14T12:59:15;18.00;99.90
46508;DHT22;32223;53.654;10.014;2022-09-14T13:06:51;18.70;99.90
46508;DHT22;32223;53.654;10.014;2022-09-14T13:09:23;19.00;99.90
46508;DHT22;32223;53.654;10.014;2022-09-14T13:12:00;19.20;99.90
46508;DHT22;32223;53.654;10.014;2022-09-14T13:14:31;19.40;99.90
46508;DHT22;32223;53.654;10.014;2022-09-14T13:16:59;19.60;99.90
46508;DHT22;32223;53.654;10.014;2022-09-14T13:19:31;19.80;99.90
46508;DHT22;32223;53.654;10.014;2022-09-14T13:21:59;19.80;99.90
46508;DHT22;32223;53.654;10.014;2022-09-14T13:24:28;19.70;99.90
46508;DHT22;32223;53.654;10.014;2022-09-14T13:26:58;19.60;99.90
46508;DHT22;32223;53.654;10.014;2022-09-14T13:29:25;19.70;99.90
46508;DHT22;32223;53.654;10.014;2022-09-14T13:31:53;19.70;99.90
46508;DHT22;32223;53.654;10.014;2022-09-14T13:34:24;19.60;99.90
46508;DHT22;32223;53.654;10.014;2022-09-14T13:36:50;19.60;99.90
46508;DHT22;32223;53.654;10.014;2022-09-14T13:39:36;19.50;99.90
46508;DHT22;32223;53.654;10.014;2022-09-14T13:42:03;19.60;99.90
46508;DHT22;32223;53.654;10.014;2022-09-14T13:44:40;19.50;99.90
46508;DHT22;32223;53.654;10.014;2022-09-14T13:47:12;19.50;99.90
46508;DHT22;32223;53.654;10.014;2022-09-14T13:49:39;19.40;99.90
46508;DHT22;32223;53.654;10.014;2022-09-14T13:54:50;19.30;99.90
46508;DHT22;32223;53.654;10.014;2022-09-14T13:57:20;19.30;99.90
46508;DHT22;32223;53.654;10.014;2022-09-14T14:02:48;20.60;99.90
46508;DHT22;32223;53.654;10.014;2022-09-14T14:05:27;20.90;99.90
46508;DHT22;32223;53.654;10.014;2022-09-14T14:07:59;20.90;99.90
46508;DHT22;32223;53.654;10.014;2022-09-14T14:10:36;20.70;99.90
46508;DHT22;32223;53.654;10.014;2022-09-14T14:13:02;20.80;99.90
46508;DHT22;32223;53.654;10.014;2022-09-14T14:15:40;20.90;99.90
46508;DHT22;32223;53.654;10.014;2022-09-14T14:18:37;20.90;99.90
46508;DHT22;32223;53.654;10.014;2022-09-14T14:21:12;20.80;99.90
46508;DHT22;32223;53.654;10.014;2022-09-14T14:23:39;21.40;99.90
46508;DHT22;32223;53.654;10.014;2022-09-14T14:26:14;22.60;99.90
46508;DHT22;32223;53.654;10.014;2022-09-14T14:28:42;24.20;99.90
46508;DHT22;32223;53.654;10.014;2022-09-14T14:31:13;25.40;98.20
46508;DHT22;32223;53.654;10.014;2022-09-14T14:33:51;26.40;92.90
46508;DHT22;32223;53.654;10.014;2022-09-14T14:36:18;27.30;90.20
46508;DHT22;32223;53.654;10.014;2022-09-14T14:38:45;27.70;86.60
46508;DHT22;32223;53.654;10.014;2022-09-14T14:41:17;27.70;82.60
46508;DHT22;32223;53.654;10.014;2022-09-14T14:43:44;28.10;81.10
46508;DHT22;32223;53.654;10.014;2022-09-14T14:46:15;28.20;80.10
46508;DHT22;32223;53.654;10.014;2022-09-14T14:48:41;28.70;76.30
46508;DHT22;32223;53.654;10.014;2022-09-14T14:51:11;28.60;73.70
46508;DHT22;32223;53.654;10.014;2022-09-14T14:53:38;28.80;72.70
46508;DHT22;32223;53.654;10.014;2022-09-14T14:56:04;28.80;71.60
46508;DHT22;32223;53.654;10.014;2022-09-14T14:58:30;29.00;70.90
46508;DHT22;32223;53.654;10.014;2022-09-14T15:00:55;29.20;70.30
46508;DHT22;32223;53.654;10.014;2022-09-14T15:03:21;28.40;69.10
46508;DHT22;32223;53.654;10.014;2022-09-14T15:05:48;27.40;70.00
46508;DHT22;32223;53.654;10.014;2022-09-14T15:08:16;26.70;72.00
46508;DHT22;32223;53.654;10.014;2022-09-14T15:10:44;26.00;73.10
46508;DHT22;32223;53.654;10.014;2022-09-14T15:13:10;25.00;74.70
46508;DHT22;32223;53.654;10.014;2022-09-14T15:15:38;24.10;77.10
46508;DHT22;32223;53.654;10.014;2022-09-14T15:18:05;23.20;79.70
46508;DHT22;32223;53.654;10.014;2022-09-14T15:20:31;22.90;81.60
46508;DHT22;32223;53.654;10.014;2022-09-14T15:22:57;22.40;83.10
46508;DHT22;32223;53.654;10.014;2022-09-14T15:25:22;22.20;84.50
46508;DHT22;32223;53.654;10.014;2022-09-14T15:27:48;22.10;86.00
46508;DHT22;32223;53.654;10.014;2022-09-14T15:30:14;21.90;87.30
46508;DHT22;32223;53.654;10.014;2022-09-14T15:32:40;21.50;89.50
46508;DHT22;32223;53.654;10.014;2022-09-14T15:35:08;21.10;90.40
46508;DHT22;32223;53.654;10.014;2022-09-14T15:37:34;20.70;91.70
46508;DHT22;32223;53.654;10.014;2022-09-14T15:40:00;20.30;93.80
46508;DHT22;32223;53.654;10.014;2022-09-14T15:42:26;20.10;94.80
46508;DHT22;32223;53.654;10.014;2022-09-14T15:44:51;19.90;95.90
46508;DHT22;32223;53.654;10.014;2022-09-14T15:47:17;19.80;96.60
46508;DHT22;32223;53.654;10.014;2022-09-14T15:49:43;19.70;97.80
46508;DHT22;32223;53.654;10.014;2022-09-14T15:52:10;19.70;98.60
46508;DHT22;32223;53.654;10.014;2022-09-14T15:54:36;20.00;98.40
46508;DHT22;32223;53.654;10.014;2022-09-14T15:57:05;20.20;98.70
46508;DHT22;32223;53.654;10.014;2022-09-14T15:59:32;20.30;98.40
46508;DHT22;32223;53.654;10.014;2022-09-14T16:01:58;20.20;98.40
46508;DHT22;32223;53.654;10.014;2022-09-14T16:04:24;20.10;98.60
46508;DHT22;32223;53.654;10.014;2022-09-14T16:06:49;20.20;99.60
46508;DHT22;32223;53.654;10.014;2022-09-14T16:09:17;20.20;98.70
46508;DHT22;32223;53.654;10.014;2022-09-14T16:11:43;20.30;99.10
46508;DHT22;32223;53.654;10.014;2022-09-14T16:14:09;20.50;98.90
46508;DHT22;32223;53.654;10.014;2022-09-14T16:16:36;20.40;98.90
46508;DHT22;32223;53.654;10.014;2022-09-14T16:19:12;20.30;99.20
46508;DHT22;32223;53.654;10.014;2022-09-14T16:21:39;20.00;99.80
46508;DHT22;32223;53.654;10.014;2022-09-14T16:24:13;19.70;99.90
46508;DHT22;32223;53.654;10.014;2022-09-14T16:26:39;19.50;99.90
46508;DHT22;32223;53.654;10.014;2022-09-14T16:29:06;19.30;99.90
46508;DHT22;32223;53.654;10.014;2022-09-14T16:31:37;19.20;99.90
46508;DHT22;32223;53.654;10.014;2022-09-14T16:34:15;19.00;99.90
46508;DHT22;32223;53.654;10.014;2022-09-14T16:36:42;18.80;99.90
46508;DHT22;32223;53.654;10.014;2022-09-14T16:39:13;18.60;99.90
46508;DHT22;32223;53.654;10.014;2022-09-14T16:41:40;18.60;99.90
46508;DHT22;32223;53.654;10.014;2022-09-14T16:44:09;18.50;99.90
46508;DHT22;32223;53.654;10.014;2022-09-14T16:46:36;18.40;99.90
46508;DHT22;32223;53.654;10.014;2022-09-14T16:49:03;18.30;99.90
46508;DHT22;32223;53.654;10.014;2022-09-14T16:51:32;18.10;99.90
46508;DHT22;32223;53.654;10.014;2022-09-14T16:53:59;17.90;99.90
46508;DHT22;32223;53.654;10.014;2022-09-14T16:56:30;17.90;99.90
46508;DHT22;32223;53.654;10.014;2022-09-14T16:58:56;17.80;99.90
46508;DHT22;32223;53.654;10.014;2022-09-14T17:01:28;17.60;99.90
46508;DHT22;32223;53.654;10.014;2022-09-14T17:03:57;17.60;99.90
46508;DHT22;32223;53.654;10.014;2022-09-14T17:06:26;17.50;99.90
46508;DHT22;32223;53.654;10.014;2022-09-14T17:08:54;17.30;99.90
46508;DHT22;32223;53.654;10.014;2022-09-14T17:11:20;17.20;99.90
46508;DHT22;32223;53.654;10.014;2022-09-14T17:13:46;17.20;99.90
46508;DHT22;32223;53.654;10.014;2022-09-14T17:16:15;17.10;99.90
46508;DHT22;32223;53.654;10.014;2022-09-14T17:18:43;16.90;99.90
46508;DHT22;32223;53.654;10.014;2022-09-14T17:21:11;16.80;99.90
46508;DHT22;32223;53.654;10.014;2022-09-14T17:23:38;16.70;99.90
46508;DHT22;32223;53.654;10.014;2022-09-14T17:26:06;16.60;99.90
46508;DHT22;32223;53.654;10.014;2022-09-14T17:28:32;16.50;99.90
46508;DHT22;32223;53.654;10.014;2022-09-14T17:31:00;16.40;99.90
46508;DHT22;32223;53.654;10.014;2022-09-14T17:33:28;16.30;99.90
46508;DHT22;32223;53.654;10.014;2022-09-14T17:35:56;16.30;99.90